Saint Leonard, Maryland
Current Conditions -  °F | °C
As of 11:35 AM on Friday 21 Nov 2014 (Local Time) from K2W6 Reporting Station
Clear Clear  
Wind Chill: 28°   Ceiling: Unl
Heat Index: 34°   Visibility: 10mi
Dew Point:   Wind: 7mph
Humidity: 32%   Direction: 280°W
Pressure: 30.46"   Gusts: NA
Location:  38.47°N, 76.51°W
Report Text: K2W6 211635Z AUTO 28006KT 10SM CLR 01/M14 A3046 RMK AO1
Loading
Personal Weather Stations






























Interactive Weather Map New forecast layout! Learn more

10-Day Weather Forecast

Advertisements
Track Severe Weather on mobile